Time;durP1;ratioP1;P1;durP2;ratioP2;P2;SDS_P1;SDS_P2;PMS_P1;PMS_P2;Temp;Humidity;BMP_temperature;BMP_pressure;BME280_temperature;BME280_humidity;BME280_pressure;Samples;Min_cycle;Max_cycle;Signal;HPM_P1;HPM_P2
2021/04/02 04:48:35;;;;;;;160.65;74.65;;;5.70;99.90;;;;;;6271251;22;20467;-96
2021/04/02 04:52:08;;;;;;;171.60;80.18;;;5.60;99.90;;;;;;6270982;22;20388;-96
2021/04/02 04:55:25;;;;;;;167.25;78.57;;;5.80;99.90;;;;;;6124922;23;20457;-96
2021/04/02 06:04:32;;;;;;;100.80;55.30;;;7.50;99.90;;;;;;6270361;22;20355;-93
2021/04/02 06:07:01;;;;;;;94.15;51.35;;;7.40;99.90;;;;;;6302020;22;20378;-95
2021/04/02 06:09:27;;;;;;;86.47;47.43;;;7.30;99.90;;;;;;6264803;22;20481;-96
2021/04/02 06:11:56;;;;;;;83.80;45.83;;;7.30;99.90;;;;;;6264069;22;20773;-96
2021/04/02 06:14:30;;;;;;;78.60;41.95;;;7.30;99.90;;;;;;6268769;22;20364;-94
2021/04/02 06:17:08;;;;;;;71.30;39.50;;;7.20;99.90;;;;;;6259913;22;20816;-96
2021/04/02 06:19:38;;;;;;;72.60;41.92;;;7.30;99.90;;;;;;6262215;22;20391;-95
2021/04/02 06:22:05;;;;;;;60.40;36.80;;;7.30;99.90;;;;;;6260924;22;20897;-95
2021/04/02 06:24:39;;;;;;;60.78;35.35;;;7.30;99.90;;;;;;6258137;22;20414;-95
2021/04/02 06:27:13;;;;;;;57.63;34.65;;;7.30;99.90;;;;;;6259582;22;20456;-94
2021/04/02 06:29:44;;;;;;;68.75;36.38;;;7.40;99.90;;;;;;6280813;22;20384;-95
2021/04/02 06:32:15;;;;;;;53.70;31.55;;;7.30;99.90;;;;;;6254542;22;20872;-95
2021/04/02 06:35:02;;;;;;;50.20;30.30;;;7.30;99.90;;;;;;6230201;22;20868;-94
2021/04/02 06:37:49;;;;;;;81.53;37.97;;;7.20;99.90;;;;;;6258084;22;20788;-95
2021/04/02 06:40:24;;;;;;;53.88;30.00;;;7.20;99.90;;;;;;6258396;22;20461;-94
2021/04/02 06:42:53;;;;;;;50.92;28.10;;;7.40;99.90;;;;;;6262270;22;20895;-94
2021/04/02 06:45:55;;;;;;;57.10;29.52;;;7.50;99.90;;;;;;6261020;22;20627;-96
2021/04/02 06:48:33;;;;;;;42.65;25.20;;;7.60;99.90;;;;;;6287066;22;20446;-95
2021/04/02 06:51:02;;;;;;;42.72;25.30;;;7.60;99.90;;;;;;6254219;22;20412;-95
2021/04/02 06:56:28;;;;;;;48.65;25.58;;;7.60;99.90;;;;;;6255491;23;20432;-96
2021/04/02 06:58:58;;;;;;;39.40;23.88;;;7.60;99.90;;;;;;6228618;23;20449;-96
2021/04/02 07:01:39;;;;;;;86.85;35.75;;;7.70;99.90;;;;;;6214646;23;20778;-95
2021/04/02 07:04:11;;;;;;;50.03;27.10;;;7.70;99.90;;;;;;6227677;23;20870;-96
2021/04/02 07:06:43;;;;;;;44.92;25.88;;;7.70;99.90;;;;;;6212077;23;20453;-95
2021/04/02 07:09:12;;;;;;;37.63;23.42;;;7.50;99.90;;;;;;6223394;23;20401;-93
2021/04/02 07:11:49;;;;;;;40.20;23.38;;;7.50;99.90;;;;;;6226139;23;20421;-96
2021/04/02 07:14:54;;;;;;;38.63;22.02;;;7.50;99.90;;;;;;6256067;23;20380;-95
2021/04/02 07:17:22;;;;;;;38.22;21.67;;;7.60;99.90;;;;;;6229854;23;20394;-96
2021/04/02 07:19:51;;;;;;;37.92;20.27;;;7.90;99.90;;;;;;6231495;23;20413;-95
2021/04/02 07:22:23;;;;;;;34.22;20.42;;;7.90;99.90;;;;;;6228407;23;20425;-96
2021/04/02 07:24:51;;;;;;;37.72;20.40;;;7.70;99.90;;;;;;6254155;23;20382;-96
2021/04/02 07:33:40;;;;;;;29.50;17.48;;;7.60;99.90;;;;;;6234255;22;20421;-96
2021/04/02 07:45:35;;;;;;;27.15;16.70;;;8.30;98.80;;;;;;6240772;22;20368;-90
2021/04/02 07:48:28;;;;;;;25.15;15.45;;;8.50;97.80;;;;;;6302161;22;20371;-90
2021/04/02 08:11:15;;;;;;;25.35;15.98;;;10.20;92.60;;;;;;6131706;23;20416;-94
2021/04/02 08:13:50;;;;;;;26.60;15.23;;;11.40;91.00;;;;;;6123623;23;20384;-94
2021/04/02 08:16:59;;;;;;;26.45;14.40;;;11.50;90.10;;;;;;6125957;23;21794;-95
2021/04/02 08:19:37;;;;;;;27.05;16.00;;;11.40;87.40;;;;;;6070014;23;20383;-93
2021/04/02 08:22:08;;;;;;;26.95;15.77;;;11.20;88.90;;;;;;6054073;23;20913;-93
2021/04/02 08:24:40;;;;;;;28.02;15.45;;;11.30;90.30;;;;;;6043798;23;20890;-92
2021/04/02 08:27:09;;;;;;;29.52;15.73;;;11.60;87.70;;;;;;6067770;23;20447;-91
2021/04/02 08:30:01;;;;;;;25.83;15.75;;;11.50;88.80;;;;;;6046312;23;20396;-93
2021/04/02 08:32:37;;;;;;;27.20;17.40;;;11.70;86.20;;;;;;6079496;23;20467;-95
2021/04/02 08:35:06;;;;;;;25.38;15.77;;;11.60;87.10;;;;;;6063459;23;21002;-95
2021/04/02 08:56:26;;;;;;;20.00;14.03;;;10.50;87.80;;;;;;6243407;22;20414;-94
2021/04/02 09:13:50;;;;;;;24.55;13.77;;;11.50;86.40;;;;;;6244389;22;20406;-95
2021/04/02 09:16:19;;;;;;;23.30;14.30;;;11.60;84.00;;;;;;6260990;22;20376;-93
2021/04/02 09:18:53;;;;;;;25.70;13.93;;;11.60;84.20;;;;;;6259103;22;20384;-94
2021/04/02 09:21:34;;;;;;;25.00;14.52;;;11.80;85.30;;;;;;6262846;22;20407;-95
2021/04/02 09:24:02;;;;;;;23.70;14.95;;;11.60;83.30;;;;;;6260152;22;20472;-94
2021/04/02 09:26:42;;;;;;;25.50;14.60;;;11.50;83.80;;;;;;6258479;22;20911;-96
2021/04/02 09:29:11;;;;;;;24.55;14.45;;;11.60;84.90;;;;;;6264571;22;20411;-94
2021/04/02 09:31:42;;;;;;;28.35;16.30;;;11.70;81.90;;;;;;6269938;22;20364;-91
2021/04/02 09:34:14;;;;;;;32.40;19.35;;;11.40;84.20;;;;;;6275069;22;20364;-92
2021/04/02 09:40:29;;;;;;;40.40;23.15;;;10.90;87.00;;;;;;6301393;22;20389;-94
2021/04/02 09:43:23;;;;;;;41.72;24.58;;;10.80;89.60;;;;;;6266307;22;20414;-96
2021/04/02 09:46:13;;;;;;;46.53;24.67;;;11.20;92.20;;;;;;6168675;23;20393;-96
2021/04/02 09:49:16;;;;;;;41.20;23.10;;;12.40;85.70;;;;;;6132095;23;20387;-96
2021/04/02 09:56:42;;;;;;;46.15;25.23;;;13.00;84.50;;;;;;6058349;23;20475;-96
2021/04/02 10:11:30;;;;;;;36.22;22.00;;;11.60;83.60;;;;;;6319347;22;20370;-96
2021/04/02 10:14:30;;;;;;;41.60;21.93;;;11.70;84.40;;;;;;6237841;23;20387;-94
2021/04/02 10:17:00;;;;;;;39.28;22.90;;;11.40;84.10;;;;;;6197774;23;20430;-96
2021/04/02 10:19:28;;;;;;;40.47;22.40;;;11.30;84.70;;;;;;6197423;23;20455;-96
2021/04/02 10:21:57;;;;;;;38.35;22.17;;;11.30;84.90;;;;;;6199151;23;20431;-95
2021/04/02 10:24:24;;;;;;;34.63;21.13;;;11.60;85.00;;;;;;6192638;23;20387;-87
2021/04/02 10:26:51;;;;;;;41.97;24.27;;;11.70;86.90;;;;;;6190581;23;20485;-89
2021/04/02 10:29:18;;;;;;;43.35;24.17;;;12.00;86.00;;;;;;6190502;23;20868;-90
2021/04/02 10:31:46;;;;;;;45.42;23.90;;;12.20;84.70;;;;;;6216151;23;20387;-92
2021/04/02 10:34:13;;;;;;;41.78;23.40;;;12.60;84.40;;;;;;6191800;23;20548;-89
2021/04/02 10:36:42;;;;;;;39.00;21.75;;;12.50;80.30;;;;;;6195010;23;20732;-94
2021/04/02 10:39:12;;;;;;;40.85;22.27;;;12.10;84.40;;;;;;6200782;23;20426;-92
2021/04/02 10:41:56;;;;;;;37.65;22.50;;;12.10;81.10;;;;;;6196614;23;20418;-96
2021/04/02 10:44:23;;;;;;;38.05;21.77;;;11.80;82.00;;;;;;6192863;23;20408;-94
2021/04/02 10:46:49;;;;;;;43.05;22.02;;;11.70;81.80;;;;;;6192930;23;20441;-92
2021/04/02 10:49:26;;;;;;;40.13;22.23;;;11.90;83.00;;;;;;6199275;23;20851;-94
2021/04/02 10:51:53;;;;;;;41.13;22.15;;;12.10;84.60;;;;;;6194382;23;20380;-92
2021/04/02 10:54:25;;;;;;;41.30;23.02;;;13.00;80.40;;;;;;6196285;23;20482;-90
2021/04/02 10:57:00;;;;;;;40.22;22.23;;;13.10;78.10;;;;;;6197071;23;20917;-91
2021/04/02 10:59:31;;;;;;;40.75;22.52;;;13.10;76.30;;;;;;6198475;23;20380;-92
2021/04/02 11:01:58;;;;;;;36.20;21.35;;;13.10;76.60;;;;;;6198366;23;20491;-92
2021/04/02 11:04:25;;;;;;;38.88;23.05;;;13.30;74.20;;;;;;6200564;23;20475;-95
2021/04/02 11:06:52;;;;;;;36.37;21.30;;;13.20;76.50;;;;;;6196540;23;20387;-91
2021/04/02 11:09:19;;;;;;;37.72;21.85;;;13.20;75.20;;;;;;6197293;23;20391;-92
2021/04/02 11:11:49;;;;;;;36.33;20.77;;;13.20;73.50;;;;;;6260024;22;20382;-94
2021/04/02 11:14:16;;;;;;;37.92;19.88;;;13.40;72.00;;;;;;6291797;22;20379;-90
2021/04/02 11:16:56;;;;;;;36.08;20.30;;;13.30;70.40;;;;;;6294040;22;20393;-91
2021/04/02 11:19:46;;;;;;;39.35;20.80;;;13.20;72.50;;;;;;6293612;22;20387;-96
2021/04/02 12:19:16;;;;;;;44.20;27.63;;;13.90;72.50;;;;;;6329767;22;20391;-96
2021/04/02 12:36:28;;;;;;;41.38;25.05;;;14.00;68.70;;;;;;6256098;22;20422;-95
2021/04/02 12:51:04;;;;;;;43.45;25.80;;;14.40;67.50;;;;;;6277403;22;20370;-91
2021/04/02 12:53:38;;;;;;;32.90;22.27;;;14.30;65.50;;;;;;6294710;22;20398;-94
2021/04/02 13:13:48;;;;;;;25.60;14.90;;;16.20;51.20;;;;;;6232472;22;20386;-95
2021/04/02 13:27:21;;;;;;;15.10;9.20;;;15.00;43.50;;;;;;6281678;22;20386;-91
2021/04/02 13:33:06;;;;;;;12.17;8.53;;;15.80;41.20;;;;;;6269419;22;20454;-95
2021/04/02 13:36:19;;;;;;;11.90;8.48;;;16.50;38.70;;;;;;6198843;22;20458;-95
2021/04/02 13:39:25;;;;;;;11.48;7.93;;;16.90;37.50;;;;;;6252009;22;20470;-96
2021/04/02 13:42:43;;;;;;;12.35;8.07;;;16.50;36.50;;;;;;6275964;22;20494;-93
2021/04/02 13:46:29;;;;;;;12.75;9.10;;;15.60;37.60;;;;;;6289970;22;20531;-93
2021/04/02 13:49:38;;;;;;;13.23;8.00;;;15.40;42.10;;;;;;6285733;22;20412;-95
2021/04/02 13:52:28;;;;;;;12.63;8.60;;;16.00;37.40;;;;;;6247121;22;20384;-96
2021/04/02 13:55:38;;;;;;;13.70;8.35;;;15.90;40.50;;;;;;6247741;22;20420;-95
2021/04/02 14:10:50;;;;;;;11.55;7.68;;;16.30;38.40;;;;;;6290419;22;20376;-93
2021/04/02 14:13:45;;;;;;;11.27;7.57;;;16.10;38.70;;;;;;6271610;22;20394;-94
2021/04/02 14:16:31;;;;;;;13.00;8.20;;;16.30;37.20;;;;;;6267151;22;20389;-93
2021/04/02 14:19:56;;;;;;;9.70;6.97;;;16.40;37.30;;;;;;6259479;22;20398;-96
2021/04/02 14:23:32;;;;;;;10.25;7.32;;;16.70;36.20;;;;;;6265763;22;20405;-92
2021/04/02 14:26:58;;;;;;;14.07;8.63;;;16.60;37.50;;;;;;6263184;22;20393;-91
2021/04/02 14:32:17;;;;;;;14.05;9.43;;;16.00;40.20;;;;;;6245287;22;20392;-94
2021/04/02 14:57:55;;;;;;;17.65;10.07;;;15.80;42.20;;;;;;6202162;23;20531;-96
2021/04/02 15:00:44;;;;;;;16.48;11.15;;;16.20;42.40;;;;;;6187388;23;20393;-96
2021/04/02 15:03:13;;;;;;;16.58;10.40;;;16.80;43.80;;;;;;6141261;23;20417;-94
2021/04/02 15:05:40;;;;;;;16.42;10.88;;;16.50;43.40;;;;;;6188892;23;20385;-96
2021/04/02 15:08:07;;;;;;;13.18;10.23;;;16.80;42.90;;;;;;6198432;23;20389;-95
2021/04/02 15:10:34;;;;;;;14.23;9.53;;;17.00;41.20;;;;;;6180453;23;20389;-92
2021/04/02 15:19:42;;;;;;;15.65;9.77;;;15.90;43.40;;;;;;6295468;22;20355;-93
2021/04/02 15:22:26;;;;;;;15.77;10.43;;;15.40;45.60;;;;;;6276360;22;20380;-92
2021/04/02 15:25:11;;;;;;;14.85;10.70;;;15.30;45.60;;;;;;6254960;22;20387;-92
2021/04/02 15:27:53;;;;;;;14.77;10.73;;;15.50;45.40;;;;;;6296363;22;20383;-94
2021/04/02 15:30:20;;;;;;;17.60;11.83;;;15.90;44.90;;;;;;6252923;22;20413;-93
2021/04/02 15:40:30;;;;;;;16.83;11.45;;;15.70;46.30;;;;;;6232699;22;20399;-96
2021/04/02 15:42:58;;;;;;;15.50;10.55;;;15.40;46.60;;;;;;6261337;22;20686;-95
2021/04/02 15:45:46;;;;;;;17.52;11.50;;;15.20;47.30;;;;;;6289399;22;20828;-92
2021/04/02 15:48:18;;;;;;;17.37;11.00;;;15.10;47.70;;;;;;6237176;22;20444;-96
2021/04/02 15:50:48;;;;;;;15.02;10.82;;;15.00;49.30;;;;;;6260833;22;20411;-96
2021/04/02 15:53:41;;;;;;;14.43;10.32;;;15.30;47.60;;;;;;6234816;22;20412;-91
2021/04/02 15:56:17;;;;;;;16.30;10.45;;;15.60;47.20;;;;;;6287338;22;20365;-91
2021/04/02 15:58:45;;;;;;;16.67;11.45;;;15.50;47.00;;;;;;6260448;22;20372;-95
2021/04/02 16:01:16;;;;;;;17.63;10.95;;;15.20;48.40;;;;;;6235319;22;20396;-94
2021/04/02 16:04:01;;;;;;;18.63;12.20;;;15.00;49.50;;;;;;6238046;22;20369;-91
2021/04/02 16:07:02;;;;;;;14.38;10.52;;;15.20;48.70;;;;;;6289724;22;20817;-95
2021/04/02 16:09:31;;;;;;;13.90;9.87;;;15.10;49.30;;;;;;6259527;22;20463;-95
2021/04/02 16:12:01;;;;;;;15.50;11.02;;;15.00;49.50;;;;;;6261595;22;20526;-92
2021/04/02 16:14:30;;;;;;;17.02;10.27;;;15.10;48.60;;;;;;6264715;22;20380;-93
2021/04/02 16:17:15;;;;;;;16.80;10.83;;;14.80;49.00;;;;;;6287322;22;20380;-90
2021/04/02 16:19:43;;;;;;;15.95;11.32;;;13.80;49.70;;;;;;6260143;22;20394;-90
2021/04/02 16:22:26;;;;;;;16.65;11.45;;;13.00;52.90;;;;;;6237251;22;20918;-90
2021/04/02 16:25:03;;;;;;;16.23;10.35;;;12.60;55.10;;;;;;6288217;22;20765;-90
2021/04/02 16:27:59;;;;;;;18.95;11.20;;;12.30;55.30;;;;;;6262957;22;20364;-91
2021/04/02 16:30:42;;;;;;;17.47;11.10;;;12.00;55.30;;;;;;6261575;22;20425;-91
2021/04/02 16:33:19;;;;;;;29.85;11.75;;;11.90;58.30;;;;;;6263167;22;20424;-90
2021/04/02 16:36:07;;;;;;;23.40;10.40;;;11.90;57.90;;;;;;6285007;22;20472;-91
2021/04/02 16:38:55;;;;;;;14.77;8.45;;;11.90;60.80;;;;;;6265771;22;20436;-90
2021/04/02 16:41:31;;;;;;;22.58;8.10;;;12.50;64.00;;;;;;6262629;22;20392;-94
2021/04/02 16:43:59;;;;;;;15.95;8.35;;;12.70;64.00;;;;;;6283219;22;20436;-96
2021/04/02 16:46:26;;;;;;;14.75;8.25;;;12.40;66.20;;;;;;6256370;22;20388;-96
2021/04/02 16:48:56;;;;;;;18.53;8.20;;;12.00;66.80;;;;;;6273202;22;20414;-89
2021/04/02 16:51:24;;;;;;;17.75;7.70;;;11.60;68.30;;;;;;6272973;22;20392;-90
2021/04/02 16:53:51;;;;;;;22.65;7.40;;;11.40;71.80;;;;;;6264919;22;20384;-90
2021/04/02 16:56:18;;;;;;;16.77;7.28;;;11.20;71.70;;;;;;6259852;22;20394;-92
2021/04/02 16:58:48;;;;;;;25.95;7.70;;;11.00;71.80;;;;;;6253655;22;20857;-95
2021/04/02 17:01:14;;;;;;;37.35;8.23;;;10.70;73.30;;;;;;6253179;22;20403;-95
2021/04/02 17:03:41;;;;;;;32.95;7.80;;;10.60;74.50;;;;;;6252423;22;20387;-90
2021/04/02 17:06:11;;;;;;;36.13;8.18;;;10.50;75.50;;;;;;6260780;22;20423;-90
2021/04/02 17:08:38;;;;;;;31.98;8.82;;;10.30;79.60;;;;;;6285271;22;20384;-91
2021/04/02 17:11:06;;;;;;;37.80;8.25;;;10.30;80.50;;;;;;6255102;22;20466;-94
2021/04/02 17:13:33;;;;;;;63.37;9.50;;;10.00;79.60;;;;;;6279542;22;20388;-91
2021/04/02 17:16:06;;;;;;;22.02;7.30;;;9.80;81.60;;;;;;6255157;22;20922;-89
2021/04/02 17:18:34;;;;;;;11.13;6.00;;;9.80;81.70;;;;;;6253512;22;20451;-90
2021/04/02 17:21:05;;;;;;;20.27;6.35;;;9.80;78.40;;;;;;6252901;22;20388;-95
2021/04/02 17:23:32;;;;;;;18.15;6.50;;;9.80;80.40;;;;;;6247852;22;20387;-92
2021/04/02 17:25:59;;;;;;;13.00;6.00;;;9.60;81.40;;;;;;6253205;22;20402;-91
2021/04/02 17:28:26;;;;;;;8.40;6.10;;;9.70;79.10;;;;;;6252077;22;20433;-95
2021/04/02 17:30:54;;;;;;;10.18;5.50;;;9.60;80.60;;;;;;6252292;22;20409;-91
2021/04/02 17:33:25;;;;;;;10.18;5.97;;;9.70;79.30;;;;;;6279428;22;20701;-92
2021/04/02 17:35:52;;;;;;;8.48;5.10;;;9.50;80.20;;;;;;6253554;22;20372;-90
2021/04/02 17:38:20;;;;;;;7.68;6.07;;;9.20;80.50;;;;;;6257290;22;20372;-90
2021/04/02 17:40:49;;;;;;;11.35;5.80;;;9.00;82.50;;;;;;6258834;22;20364;-91
2021/04/02 17:46:16;;;;;;;9.98;5.20;;;8.70;84.20;;;;;;6193343;22;20393;-91
2021/04/02 17:48:42;;;;;;;7.50;4.60;;;8.50;85.30;;;;;;6138557;23;20424;-90
2021/04/02 17:51:12;;;;;;;7.50;5.20;;;8.50;87.00;;;;;;6166567;23;20391;-91
2021/04/02 17:53:40;;;;;;;8.48;5.40;;;8.30;87.40;;;;;;6165416;23;20393;-91
2021/04/02 17:56:13;;;;;;;9.30;5.90;;;8.30;88.70;;;;;;6213530;22;20380;-90
2021/04/02 17:58:45;;;;;;;10.07;6.10;;;8.20;89.40;;;;;;6260435;22;20375;-91
2021/04/02 18:01:12;;;;;;;10.60;5.95;;;8.30;89.80;;;;;;6261130;22;20400;-91
2021/04/02 18:03:43;;;;;;;12.47;5.90;;;8.10;90.60;;;;;;6259852;22;20391;-91
2021/04/02 18:06:11;;;;;;;9.32;5.68;;;8.00;91.50;;;;;;6256427;22;20422;-91
2021/04/02 18:08:46;;;;;;;10.45;5.90;;;7.90;91.80;;;;;;6257095;22;20381;-92
2021/04/02 18:11:13;;;;;;;11.35;6.30;;;7.80;92.20;;;;;;6256035;22;20384;-91
2021/04/02 18:13:49;;;;;;;9.85;6.88;;;7.70;92.90;;;;;;6284922;22;20545;-92
2021/04/02 18:16:44;;;;;;;12.20;7.00;;;7.50;93.70;;;;;;6243075;22;20419;-93
2021/04/02 18:19:28;;;;;;;10.93;6.68;;;7.40;94.60;;;;;;6263965;22;20547;-96
2021/04/02 18:22:11;;;;;;;11.15;7.28;;;7.30;94.70;;;;;;6258603;22;20399;-96
2021/04/02 18:25:11;;;;;;;10.03;6.70;;;7.20;95.30;;;;;;6225836;22;20380;-93
2021/04/02 18:28:26;;;;;;;8.95;6.53;;;7.10;95.90;;;;;;6248301;22;20364;-91
2021/04/02 18:31:44;;;;;;;11.23;7.45;;;7.00;96.40;;;;;;6218265;23;20369;-92
2021/04/02 18:38:31;;;;;;;11.35;7.22;;;6.70;97.90;;;;;;6245753;22;20415;-94
2021/04/02 18:41:57;;;;;;;11.15;7.75;;;6.50;98.50;;;;;;6271672;22;20410;-95
2021/04/02 18:46:04;;;;;;;10.40;8.05;;;6.30;99.10;;;;;;6174255;23;20378;-95
2021/04/02 18:53:33;;;;;;;11.27;7.50;;;6.30;99.60;;;;;;6132017;23;20419;-94
2021/04/02 18:56:59;;;;;;;12.60;8.02;;;6.20;99.90;;;;;;6033653;23;20394;-94
2021/04/02 19:00:20;;;;;;;11.98;7.78;;;6.10;99.90;;;;;;5937007;24;20445;-94
2021/04/02 19:03:01;;;;;;;10.40;6.63;;;6.10;99.90;;;;;;5913677;24;20424;-93
2021/04/02 19:05:28;;;;;;;10.63;6.80;;;6.10;99.90;;;;;;5908871;24;20495;-92
2021/04/02 19:08:18;;;;;;;11.15;6.65;;;6.20;99.70;;;;;;5937547;24;20415;-93
2021/04/02 19:11:33;;;;;;;8.80;6.55;;;6.30;99.40;;;;;;5923396;24;20397;-93
2021/04/02 19:17:53;;;;;;;9.25;5.78;;;6.40;99.00;;;;;;6276068;22;21633;-91
2021/04/02 19:20:49;;;;;;;7.97;6.10;;;6.50;98.80;;;;;;6271004;22;20376;-92
2021/04/02 20:43:21;;;;;;;12.10;8.77;;;3.70;99.90;;;;;;6230583;22;20430;-92
